Aviation Digital Data Service (ADDS)

Output produced by METARs form (2256 UTC 15 February 2019)
found at http://www.aviationweather.gov/metar/data/
 
Forecast for: DXNG (NAIMTOUGOU(CIV/M, TG)
Text: TAF DXNG 151700Z 1518/1618 08010KT 8000 NSC
Forecast period: 1800 UTC 15 February 2019 to 1800 UTC 16 February 2019
Forecast type: FROM: standard forecast or significant change
Winds: from the E (80 degrees) at 12 MPH (10 knots; 5.1 m/s)
Visibility: 5 miles (8 km)
Ceiling: unknown
Clouds: missing
Weather: no significant weather forecast for this period
Text: TEMPO 1604/1610 4000 HZ
Forecast period: 0400 to 1000 UTC 16 February 2019
Forecast type: TEMPORARY: The following changes expected for less than half the time period
Visibility: 2.49 miles (4.01 km)
Ceiling: unknown
Clouds: missing
Weather: HZ  (haze)